Terminal Aerodrome Forecast
Issued by NWS Sterling, VA

Home | Current Version | Previous Version | Text Only | Print | Product List | Glossary On
Versions: 1 2 3 4 5 6 7 8 9 10 11 12 13 14 15 16 17 18 19 20 21 22 23 24 25 26 27 28 29 30 31 32
000
FTUS41 KLWX 211130
TAFDCA
TAF
KDCA 211130Z 2112/2212 29007KT P6SM SCT080
     FM211500 29011G20KT P6SM FEW070
     FM212100 25013G22KT P6SM SCT070
     FM212300 24009KT P6SM FEW070
     FM220800 22006KT P6SM BKN090=

USA.gov is the U.S. government's official web portal to all federal, state and local government web resources and services.